createdAt,value
2019-03-24T00:00:05.091Z,18.27
2019-03-24T00:01:05.177Z,18.25
2019-03-24T00:02:05.109Z,18.26
2019-03-24T00:03:05.158Z,18.26
2019-03-24T00:04:05.168Z,18.25
2019-03-24T00:05:05.178Z,18.24
2019-03-24T00:06:05.093Z,18.24
2019-03-24T00:07:04.907Z,18.23
2019-03-24T00:08:05.108Z,18.24
2019-03-24T00:09:05.102Z,18.23
2019-03-24T00:10:05.233Z,18.23
2019-03-24T00:11:05.254Z,18.23
2019-03-24T00:12:05.144Z,18.23
2019-03-24T00:13:05.033Z,18.22
2019-03-24T00:14:04.898Z,18.23
2019-03-24T00:15:04.974Z,18.23
2019-03-24T00:16:04.942Z,18.22
2019-03-24T00:17:05.104Z,18.22
2019-03-24T00:18:04.942Z,18.22
2019-03-24T00:19:05.118Z,18.21
2019-03-24T00:20:04.998Z,18.21
2019-03-24T00:21:05.023Z,18.2
2019-03-24T00:22:05.106Z,18.2
2019-03-24T00:23:05.005Z,18.2
2019-03-24T00:24:05.085Z,18.19
2019-03-24T00:25:05.167Z,18.19
2019-03-24T00:26:05.101Z,18.19
2019-03-24T00:27:05.178Z,18.19
2019-03-24T00:28:05.316Z,18.19
2019-03-24T00:29:05.068Z,18.19
2019-03-24T00:30:04.928Z,18.18
2019-03-24T00:31:05.069Z,18.19
2019-03-24T00:32:04.951Z,18.18
2019-03-24T00:33:04.972Z,18.17
2019-03-24T00:34:04.995Z,18.18
2019-03-24T00:35:05.066Z,18.17
2019-03-24T00:36:05.011Z,18.17
2019-03-24T00:37:05.030Z,18.17
2019-03-24T00:38:05.136Z,18.17
2019-03-24T00:39:05.072Z,18.17
2019-03-24T00:40:05.115Z,18.16
2019-03-24T00:41:05.084Z,18.16
2019-03-24T00:42:05.080Z,18.16
2019-03-24T00:43:05.207Z,18.15
2019-03-24T00:44:05.164Z,18.15
2019-03-24T00:45:05.111Z,18.15
2019-03-24T00:46:04.922Z,18.15
2019-03-24T00:47:04.934Z,18.13
2019-03-24T00:48:04.892Z,18.13
2019-03-24T00:49:04.923Z,18.13
2019-03-24T00:50:05.113Z,18.13
2019-03-24T00:51:04.933Z,18.12
2019-03-24T00:52:04.962Z,18.12
2019-03-24T00:53:04.971Z,18.12
2019-03-24T00:54:04.976Z,18.13
2019-03-24T00:55:05.188Z,18.12
2019-03-24T00:56:05.052Z,18.11
2019-03-24T00:57:05.138Z,18.11
2019-03-24T00:58:05.038Z,18.11
2019-03-24T00:59:05.071Z,18.11
2019-03-24T01:00:05.112Z,18.1
2019-03-24T01:01:05.058Z,18.1
2019-03-24T01:02:05.106Z,18.09
2019-03-24T01:03:05.022Z,18.1
2019-03-24T01:04:05.008Z,18.1
2019-03-24T01:05:05.022Z,18.1
2019-03-24T01:06:04.930Z,18.09
2019-03-24T01:07:04.962Z,18.09
2019-03-24T01:08:04.968Z,18.09
2019-03-24T01:09:05.043Z,18.08
2019-03-24T01:10:05.012Z,18.09
2019-03-24T01:11:05.035Z,18.08
2019-03-24T01:12:05.024Z,18.08
2019-03-24T01:13:05.125Z,18.08
2019-03-24T01:14:05.041Z,18.08
2019-03-24T01:15:05.064Z,18.07
2019-03-24T01:16:05.179Z,18.07
2019-03-24T01:17:05.083Z,18.07
2019-03-24T01:18:05.136Z,18.06
2019-03-24T01:19:05.206Z,18.06
2019-03-24T01:20:05.191Z,18.07
2019-03-24T01:21:04.874Z,18.06
2019-03-24T01:22:05.008Z,18.05
2019-03-24T01:23:04.891Z,18.04
2019-03-24T01:24:04.892Z,18.05
2019-03-24T01:25:04.973Z,18.05
2019-03-24T01:26:04.944Z,18.05
2019-03-24T01:27:05.058Z,18.04
2019-03-24T01:28:05.029Z,18.04
2019-03-24T01:29:05.119Z,18.04
2019-03-24T01:30:05.059Z,18.04
2019-03-24T01:31:04.982Z,18.04
2019-03-24T01:32:05.097Z,18.04
2019-03-24T01:33:05.186Z,18.03
2019-03-24T01:34:05.366Z,18.04
2019-03-24T01:35:05.049Z,18.04
2019-03-24T01:36:05.177Z,18.03
2019-03-24T01:37:05.112Z,18.03
2019-03-24T01:38:05.120Z,18.03
2019-03-24T01:39:04.946Z,18.02
2019-03-24T01:40:04.885Z,18.02
2019-03-24T01:41:04.921Z,18.01
2019-03-24T01:42:04.911Z,18.02
2019-03-24T01:43:04.991Z,18.01
2019-03-24T01:44:04.929Z,18.01
2019-03-24T01:45:04.958Z,18.01
2019-03-24T01:46:04.971Z,18.01
2019-03-24T01:47:04.983Z,18
2019-03-24T01:48:05.082Z,17.99
2019-03-24T01:49:05.130Z,17.99
2019-03-24T01:50:05.164Z,17.99
2019-03-24T01:51:05.081Z,17.99
2019-03-24T01:52:05.064Z,17.98
2019-03-24T01:53:05.198Z,17.98
2019-03-24T01:54:05.104Z,17.98
2019-03-24T01:55:05.137Z,17.98
2019-03-24T01:56:05.276Z,17.98
2019-03-24T01:57:04.864Z,17.98
2019-03-24T01:58:04.841Z,17.98
2019-03-24T01:59:04.880Z,17.98
2019-03-24T02:00:04.940Z,17.97
2019-03-24T02:01:04.953Z,17.97
2019-03-24T02:02:04.900Z,17.97
2019-03-24T02:03:04.925Z,17.97
2019-03-24T02:04:04.920Z,17.96
2019-03-24T02:05:04.964Z,17.96
2019-03-24T02:06:05.166Z,17.96
2019-03-24T02:07:05.057Z,17.95
2019-03-24T02:08:05.080Z,17.96
2019-03-24T02:09:05.004Z,17.96
2019-03-24T02:10:05.021Z,17.96
2019-03-24T02:11:05.038Z,17.95
2019-03-24T02:12:05.072Z,17.95
2019-03-24T02:13:05.070Z,17.96
2019-03-24T02:14:05.048Z,17.95
2019-03-24T02:15:05.123Z,17.96
2019-03-24T02:16:10.065Z,17.95
2019-03-24T02:17:04.983Z,17.93
2019-03-24T02:18:04.915Z,17.94
2019-03-24T02:19:04.947Z,17.94
2019-03-24T02:20:04.957Z,17.94
2019-03-24T02:21:04.946Z,17.94
2019-03-24T02:22:04.932Z,17.93
2019-03-24T02:23:05.025Z,17.93
2019-03-24T02:24:04.999Z,17.92
2019-03-24T02:25:04.986Z,17.92
2019-03-24T02:26:05.012Z,17.92
2019-03-24T02:27:05.150Z,17.93
2019-03-24T02:28:05.076Z,17.92
2019-03-24T02:29:05.034Z,17.92
2019-03-24T02:30:05.111Z,17.92
2019-03-24T02:31:05.149Z,17.91
2019-03-24T02:32:05.095Z,17.92
2019-03-24T02:33:05.166Z,17.91
2019-03-24T02:34:04.927Z,17.91
2019-03-24T02:35:04.860Z,17.92
2019-03-24T02:36:04.910Z,17.9
2019-03-24T02:37:04.974Z,17.91
2019-03-24T02:38:04.989Z,17.9
2019-03-24T02:39:04.953Z,17.9
2019-03-24T02:40:04.924Z,17.9
2019-03-24T02:41:05.026Z,17.9
2019-03-24T02:42:04.987Z,17.89
2019-03-24T02:43:04.969Z,17.9
2019-03-24T02:44:04.986Z,17.89
2019-03-24T02:45:05.106Z,17.88
2019-03-24T02:46:05.169Z,17.88
2019-03-24T02:47:05.229Z,17.89
2019-03-24T02:48:05.205Z,17.89
2019-03-24T02:49:05.038Z,17.89
2019-03-24T02:50:05.126Z,17.87
2019-03-24T02:51:05.159Z,17.88
2019-03-24T02:52:04.892Z,17.88
2019-03-24T02:53:04.820Z,17.87
2019-03-24T02:54:04.948Z,17.86
2019-03-24T02:55:04.928Z,17.87
2019-03-24T02:56:04.939Z,17.87
2019-03-24T02:57:04.918Z,17.87
2019-03-24T02:58:05.011Z,17.86
2019-03-24T02:59:04.983Z,17.86
2019-03-24T03:00:05.421Z,17.86
2019-03-24T03:01:05.319Z,17.86
2019-03-24T03:02:05.018Z,17.86
2019-03-24T03:03:05.042Z,17.86
2019-03-24T03:04:05.239Z,17.86
2019-03-24T03:05:04.851Z,17.86
2019-03-24T03:06:05.067Z,17.86
2019-03-24T03:07:05.211Z,17.85
2019-03-24T03:08:05.205Z,17.85
2019-03-24T03:09:05.157Z,17.85
2019-03-24T03:10:05.164Z,17.85
2019-03-24T03:11:04.817Z,17.84
2019-03-24T03:12:05.064Z,17.83
2019-03-24T03:13:04.888Z,17.84
2019-03-24T03:14:05.006Z,17.83
2019-03-24T03:15:04.927Z,17.83
2019-03-24T03:16:04.898Z,17.82
2019-03-24T03:17:04.913Z,17.82
2019-03-24T03:18:04.967Z,17.82
2019-03-24T03:19:05.070Z,17.82
2019-03-24T03:20:04.968Z,17.83
2019-03-24T03:21:05.103Z,17.83
2019-03-24T03:22:05.347Z,17.82
2019-03-24T03:23:05.065Z,17.82
2019-03-24T03:24:04.987Z,17.81
2019-03-24T03:25:05.057Z,17.82
2019-03-24T03:26:05.040Z,17.81
2019-03-24T03:27:05.127Z,17.81
2019-03-24T03:28:05.099Z,17.81
2019-03-24T03:29:04.985Z,17.81
2019-03-24T03:30:05.168Z,17.79
2019-03-24T03:31:04.986Z,17.8
2019-03-24T03:32:04.915Z,17.8
2019-03-24T03:33:05.277Z,17.79
2019-03-24T03:34:05.009Z,17.79
2019-03-24T03:35:05.148Z,17.79
2019-03-24T03:36:05.076Z,17.79
2019-03-24T03:37:05.135Z,17.79
2019-03-24T03:38:04.977Z,17.79
2019-03-24T03:39:05.150Z,17.79
2019-03-24T03:40:05.406Z,17.79
2019-03-24T03:41:05.136Z,17.79
2019-03-24T03:42:05.438Z,17.78
2019-03-24T03:43:05.100Z,17.78
2019-03-24T03:44:05.918Z,17.78
2019-03-24T03:45:05.094Z,17.77
2019-03-24T03:46:05.075Z,17.77
2019-03-24T03:47:05.188Z,17.78
2019-03-24T03:48:05.108Z,17.77
2019-03-24T03:49:04.849Z,17.77
2019-03-24T03:50:04.846Z,17.76
2019-03-24T03:51:04.880Z,17.77
2019-03-24T03:52:04.933Z,17.77
2019-03-24T03:53:04.909Z,17.76
2019-03-24T03:54:04.919Z,17.77
2019-03-24T03:55:05.627Z,17.76
2019-03-24T03:56:05.026Z,17.76
2019-03-24T03:57:04.949Z,17.75
2019-03-24T03:58:04.977Z,17.75
2019-03-24T03:59:05.142Z,17.75
2019-03-24T04:00:04.988Z,17.75
2019-03-24T04:01:05.050Z,17.75
2019-03-24T04:02:05.217Z,17.75
2019-03-24T04:03:05.245Z,17.74
2019-03-24T04:04:05.361Z,17.74
2019-03-24T04:05:05.376Z,17.74
2019-03-24T04:06:05.076Z,17.74
2019-03-24T04:07:05.213Z,17.74
2019-03-24T04:08:04.864Z,17.74
2019-03-24T04:09:04.875Z,17.73
2019-03-24T04:10:04.843Z,17.73
2019-03-24T04:11:04.905Z,17.73
2019-03-24T04:12:04.892Z,17.73
2019-03-24T04:13:04.908Z,17.73
2019-03-24T04:14:05.054Z,17.73
2019-03-24T04:15:04.962Z,17.72
2019-03-24T04:16:05.020Z,17.73
2019-03-24T04:17:08.718Z,17.72
2019-03-24T04:18:04.993Z,17.73
2019-03-24T04:19:05.014Z,17.72
2019-03-24T04:20:05.016Z,17.73
2019-03-24T04:21:05.088Z,17.72
2019-03-24T04:22:05.047Z,17.72
2019-03-24T04:23:05.233Z,17.72
2019-03-24T04:24:05.067Z,17.73
2019-03-24T04:25:05.056Z,17.72
2019-03-24T04:26:05.435Z,17.71
2019-03-24T04:27:05.103Z,17.71
2019-03-24T04:28:04.877Z,17.71
2019-03-24T04:29:04.810Z,17.7
2019-03-24T04:30:05.111Z,17.7
2019-03-24T04:31:04.931Z,17.7
2019-03-24T04:32:04.947Z,17.7
2019-03-24T04:33:04.845Z,17.7
2019-03-24T04:34:04.873Z,17.69
2019-03-24T04:35:04.946Z,17.69
2019-03-24T04:36:04.927Z,17.69
2019-03-24T04:37:04.991Z,17.7
2019-03-24T04:38:04.993Z,17.7
2019-03-24T04:39:05.085Z,17.7
2019-03-24T04:40:05.258Z,17.71
2019-03-24T04:41:05.102Z,17.71
2019-03-24T04:42:04.995Z,17.72
2019-03-24T04:43:05.004Z,17.72
2019-03-24T04:44:05.130Z,17.73
2019-03-24T04:45:05.046Z,17.73
2019-03-24T04:46:05.033Z,17.73
2019-03-24T04:47:04.872Z,17.74
2019-03-24T04:48:05.258Z,17.74
2019-03-24T04:49:04.816Z,17.76
2019-03-24T04:50:04.907Z,17.77
2019-03-24T04:51:04.931Z,17.78
2019-03-24T04:52:04.908Z,17.79
2019-03-24T04:53:04.991Z,17.79
2019-03-24T04:54:04.969Z,17.8
2019-03-24T04:55:04.941Z,17.81
2019-03-24T04:56:05.034Z,17.83
2019-03-24T04:57:05.031Z,17.85
2019-03-24T04:58:04.984Z,17.86
2019-03-24T04:59:04.993Z,17.88
2019-03-24T05:00:05.041Z,17.9
2019-03-24T05:01:04.988Z,17.92
2019-03-24T05:02:05.166Z,17.93
2019-03-24T05:03:05.084Z,17.96
2019-03-24T05:04:05.124Z,17.98
2019-03-24T05:05:04.784Z,18
2019-03-24T05:06:04.851Z,18.02
2019-03-24T05:07:04.858Z,18.04
2019-03-24T05:08:04.881Z,18.06
2019-03-24T05:09:04.999Z,18.07
2019-03-24T05:10:04.847Z,18.09
2019-03-24T05:11:04.882Z,18.1
2019-03-24T05:12:05.035Z,18.13
2019-03-24T05:13:04.866Z,18.14
2019-03-24T05:14:04.995Z,18.16
2019-03-24T05:15:04.908Z,18.18
2019-03-24T05:16:04.921Z,18.2
2019-03-24T05:17:05.091Z,18.22
2019-03-24T05:18:05.038Z,18.23
2019-03-24T05:19:04.951Z,18.25
2019-03-24T05:20:04.966Z,18.27
2019-03-24T05:21:04.999Z,18.28
2019-03-24T05:22:05.092Z,18.29
2019-03-24T05:23:04.846Z,18.3
2019-03-24T05:24:04.889Z,18.33
2019-03-24T05:25:04.834Z,18.35
2019-03-24T05:26:04.907Z,18.35
2019-03-24T05:27:04.971Z,18.36
2019-03-24T05:28:04.964Z,18.38
2019-03-24T05:29:04.951Z,18.38
2019-03-24T05:30:05.320Z,18.41
2019-03-24T05:31:05.424Z,18.41
2019-03-24T05:32:04.923Z,18.42
2019-03-24T05:33:04.948Z,18.43
2019-03-24T05:34:05.007Z,18.44
2019-03-24T05:35:06.006Z,18.46
2019-03-24T05:36:05.051Z,18.46
2019-03-24T05:37:05.026Z,18.47
2019-03-24T05:38:05.022Z,18.48
2019-03-24T05:39:05.121Z,18.5
2019-03-24T05:40:05.131Z,18.51
2019-03-24T05:41:04.820Z,18.51
2019-03-24T05:42:04.870Z,18.52
2019-03-24T05:43:04.779Z,18.54
2019-03-24T05:44:04.897Z,18.54
2019-03-24T05:45:04.937Z,18.54
2019-03-24T05:46:04.842Z,18.55
2019-03-24T05:47:04.836Z,18.56
2019-03-24T05:48:04.890Z,18.57
2019-03-24T05:49:04.898Z,18.57
2019-03-24T05:50:04.991Z,18.58
2019-03-24T05:51:04.937Z,18.59
2019-03-24T05:52:05.045Z,18.6
2019-03-24T05:53:04.947Z,18.6
2019-03-24T05:54:05.058Z,18.6
2019-03-24T05:55:05.111Z,18.6
2019-03-24T05:56:04.988Z,18.61
2019-03-24T05:57:04.989Z,18.61
2019-03-24T05:58:04.900Z,18.61
2019-03-24T05:59:04.894Z,18.61
2019-03-24T06:00:04.883Z,18.61
2019-03-24T06:01:04.914Z,18.61
2019-03-24T06:02:04.938Z,18.63
2019-03-24T06:03:04.869Z,18.63
2019-03-24T06:04:04.877Z,18.63
2019-03-24T06:05:04.892Z,18.63
2019-03-24T06:06:04.918Z,18.64
2019-03-24T06:07:04.934Z,18.65
2019-03-24T06:08:04.913Z,18.65
2019-03-24T06:09:04.950Z,18.64
2019-03-24T06:10:05.006Z,18.64
2019-03-24T06:11:04.947Z,18.64
2019-03-24T06:12:05.094Z,18.64
2019-03-24T06:13:05.079Z,18.64
2019-03-24T06:14:04.998Z,18.64
2019-03-24T06:15:05.039Z,18.64
2019-03-24T06:16:05.083Z,18.64
2019-03-24T06:17:04.883Z,18.64
2019-03-24T06:18:04.837Z,18.64
2019-03-24T06:19:04.794Z,18.64
2019-03-24T06:20:04.787Z,18.64
2019-03-24T06:21:04.938Z,18.63
2019-03-24T06:22:04.881Z,18.63
2019-03-24T06:23:04.894Z,18.63
2019-03-24T06:24:04.864Z,18.63
2019-03-24T06:25:04.906Z,18.62
2019-03-24T06:26:05.072Z,18.62
2019-03-24T06:27:04.959Z,18.62
2019-03-24T06:28:04.991Z,18.62
2019-03-24T06:29:04.937Z,18.62
2019-03-24T06:30:04.959Z,18.62
2019-03-24T06:31:05.033Z,18.61
2019-03-24T06:32:04.944Z,18.61
2019-03-24T06:33:05.172Z,18.6
2019-03-24T06:34:04.991Z,18.6
2019-03-24T06:35:05.285Z,18.6
2019-03-24T06:36:05.269Z,18.6
2019-03-24T06:37:04.838Z,18.6
2019-03-24T06:38:04.870Z,18.6
2019-03-24T06:39:04.870Z,18.6
2019-03-24T06:40:04.837Z,18.59
2019-03-24T06:41:04.917Z,18.6
2019-03-24T06:42:04.864Z,18.6
2019-03-24T06:43:04.893Z,18.59
2019-03-24T06:44:04.976Z,18.59
2019-03-24T06:45:04.984Z,18.59
2019-03-24T06:46:04.970Z,18.59
2019-03-24T06:47:04.957Z,18.59
2019-03-24T06:48:04.975Z,18.59
2019-03-24T06:49:05.020Z,18.58
2019-03-24T06:50:05.339Z,18.59
2019-03-24T06:51:05.034Z,18.58
2019-03-24T06:52:04.900Z,18.57
2019-03-24T06:53:04.753Z,18.58
2019-03-24T06:54:04.942Z,18.58
2019-03-24T06:55:04.774Z,18.58
2019-03-24T06:56:04.748Z,18.58
2019-03-24T06:57:04.918Z,18.58
2019-03-24T06:58:04.815Z,18.57
2019-03-24T06:59:04.845Z,18.57
2019-03-24T07:00:04.855Z,18.57
2019-03-24T07:01:04.869Z,18.57
2019-03-24T07:02:04.890Z,18.57
2019-03-24T07:03:05.139Z,18.58
2019-03-24T07:04:04.979Z,18.57
2019-03-24T07:05:04.921Z,18.57
2019-03-24T07:06:05.198Z,18.56
2019-03-24T07:07:04.923Z,18.56
2019-03-24T07:08:05.169Z,18.57
2019-03-24T07:09:05.155Z,18.56
2019-03-24T07:10:04.789Z,18.56
2019-03-24T07:11:14.186Z,18.56
2019-03-24T07:12:04.829Z,18.56
2019-03-24T07:13:04.821Z,18.56
2019-03-24T07:14:04.902Z,18.56
2019-03-24T07:15:04.859Z,18.55
2019-03-24T07:16:04.874Z,18.55
2019-03-24T07:17:04.887Z,18.55
2019-03-24T07:18:09.179Z,18.55
2019-03-24T07:19:04.883Z,18.55
2019-03-24T07:20:04.970Z,18.55
2019-03-24T07:21:04.941Z,18.56
2019-03-24T07:22:07.534Z,18.56
2019-03-24T07:23:04.951Z,18.55
2019-03-24T07:24:05.065Z,18.56
2019-03-24T07:25:04.995Z,18.56
2019-03-24T07:26:05.092Z,18.56
2019-03-24T07:27:04.736Z,18.55
2019-03-24T07:28:04.723Z,18.54
2019-03-24T07:29:04.776Z,18.54
2019-03-24T07:30:04.806Z,18.56
2019-03-24T07:31:04.807Z,18.55
2019-03-24T07:32:05.017Z,18.55
2019-03-24T07:33:04.821Z,18.55
2019-03-24T07:34:04.945Z,18.55
2019-03-24T07:35:04.867Z,18.55
2019-03-24T07:36:04.926Z,18.55
2019-03-24T07:37:04.894Z,18.55
2019-03-24T07:38:04.900Z,18.55
2019-03-24T07:39:04.919Z,18.54
2019-03-24T07:40:05.343Z,18.54
2019-03-24T07:41:05.004Z,18.55
2019-03-24T07:42:05.882Z,18.54
2019-03-24T07:43:04.946Z,18.55
2019-03-24T07:44:04.783Z,18.54
2019-03-24T07:45:04.832Z,18.54
2019-03-24T07:46:04.801Z,18.54
2019-03-24T07:47:04.821Z,18.54
2019-03-24T07:48:04.840Z,18.54
2019-03-24T07:49:04.810Z,18.54
2019-03-24T07:50:04.937Z,18.55
2019-03-24T07:51:04.901Z,18.55
2019-03-24T07:52:04.867Z,18.55
2019-03-24T07:53:04.905Z,18.54
2019-03-24T07:54:04.947Z,18.55
2019-03-24T07:55:04.888Z,18.54
2019-03-24T07:56:04.924Z,18.54
2019-03-24T07:57:04.990Z,18.54
2019-03-24T07:58:04.937Z,18.54
2019-03-24T07:59:04.943Z,18.54
2019-03-24T08:00:04.982Z,18.54
2019-03-24T08:01:04.879Z,18.54
2019-03-24T08:02:05.099Z,18.55
2019-03-24T08:03:04.809Z,18.55
2019-03-24T08:04:06.228Z,18.55
2019-03-24T08:05:04.788Z,18.55
2019-03-24T08:06:05.917Z,18.55
2019-03-24T08:07:04.923Z,18.55
2019-03-24T08:08:04.820Z,18.56
2019-03-24T08:09:04.955Z,18.55
2019-03-24T08:10:04.864Z,18.56
2019-03-24T08:11:05.166Z,18.57
2019-03-24T08:12:04.921Z,18.56
2019-03-24T08:13:04.905Z,18.57
2019-03-24T08:14:04.925Z,18.57
2019-03-24T08:15:04.920Z,18.58
2019-03-24T08:16:04.952Z,18.58
2019-03-24T08:17:04.964Z,18.57
2019-03-24T08:18:04.819Z,18.58
2019-03-24T08:19:04.831Z,18.58
2019-03-24T08:20:04.776Z,18.59
2019-03-24T08:21:04.784Z,18.59
2019-03-24T08:22:04.935Z,18.59
2019-03-24T08:23:05.239Z,18.6
2019-03-24T08:24:05.140Z,18.6
2019-03-24T08:25:04.847Z,18.6
2019-03-24T08:26:04.875Z,18.6
2019-03-24T08:27:05.057Z,18.6
2019-03-24T08:28:04.909Z,18.6
2019-03-24T08:29:04.931Z,18.6
2019-03-24T08:30:04.903Z,18.6
2019-03-24T08:31:04.931Z,18.61
2019-03-24T08:32:04.948Z,18.61
2019-03-24T08:33:04.972Z,18.61
2019-03-24T08:34:05.029Z,18.61
2019-03-24T08:35:05.138Z,18.61
2019-03-24T08:36:04.714Z,18.61
2019-03-24T08:37:04.731Z,18.61
2019-03-24T08:38:04.724Z,18.61
2019-03-24T08:39:04.741Z,18.61
2019-03-24T08:40:04.766Z,18.62
2019-03-24T08:41:04.853Z,18.61
2019-03-24T08:42:04.889Z,18.61
2019-03-24T08:43:04.828Z,18.61
2019-03-24T08:44:04.826Z,18.62
2019-03-24T08:45:05.373Z,18.62
2019-03-24T08:46:05.920Z,18.63
2019-03-24T08:47:05.040Z,18.63
2019-03-24T08:48:04.899Z,18.63
2019-03-24T08:49:04.992Z,18.63
2019-03-24T08:50:04.907Z,18.64
2019-03-24T08:51:04.929Z,18.64
2019-03-24T08:52:04.775Z,18.64
2019-03-24T08:53:04.860Z,18.64
2019-03-24T08:54:04.745Z,18.64
2019-03-24T08:55:04.783Z,18.64
2019-03-24T08:56:04.847Z,18.64
2019-03-24T08:57:04.960Z,18.64
2019-03-24T08:58:04.832Z,18.64
2019-03-24T08:59:04.829Z,18.64
2019-03-24T09:00:04.877Z,18.65
2019-03-24T09:01:04.867Z,18.65
2019-03-24T09:02:04.986Z,18.65
2019-03-24T09:03:04.985Z,18.65
2019-03-24T09:04:04.906Z,18.65
2019-03-24T09:05:04.920Z,18.65
2019-03-24T09:06:05.028Z,18.65
2019-03-24T09:07:05.242Z,18.65
2019-03-24T09:08:05.064Z,18.65
2019-03-24T09:09:04.813Z,18.65
2019-03-24T09:10:04.759Z,18.66
2019-03-24T09:11:04.769Z,18.66
2019-03-24T09:12:04.723Z,18.66
2019-03-24T09:13:04.826Z,18.65
2019-03-24T09:14:04.759Z,18.66
2019-03-24T09:15:04.763Z,18.66
2019-03-24T09:16:04.988Z,18.65
2019-03-24T09:17:04.918Z,18.66
2019-03-24T09:18:04.904Z,18.65
2019-03-24T09:19:04.856Z,18.65
2019-03-24T09:20:04.853Z,18.65
2019-03-24T09:21:04.876Z,18.65
2019-03-24T09:22:05.023Z,18.65
2019-03-24T09:23:04.935Z,18.64
2019-03-24T09:24:04.968Z,18.61
2019-03-24T09:25:04.925Z,18.59
2019-03-24T09:26:04.727Z,18.56
2019-03-24T09:27:04.764Z,18.54
2019-03-24T09:28:04.979Z,18.53
2019-03-24T09:29:05.129Z,18.52
2019-03-24T09:30:04.813Z,18.5
2019-03-24T09:31:04.797Z,18.48
2019-03-24T09:32:04.897Z,18.48
2019-03-24T09:33:04.907Z,18.46
2019-03-24T09:34:04.817Z,18.44
2019-03-24T09:35:04.831Z,18.42
2019-03-24T09:36:04.892Z,18.42
2019-03-24T09:37:04.874Z,18.41
2019-03-24T09:38:04.875Z,18.4
2019-03-24T09:39:04.993Z,18.38
2019-03-24T09:40:05.062Z,18.38
2019-03-24T09:41:05.041Z,18.37
2019-03-24T09:42:04.977Z,18.37
2019-03-24T09:43:05.066Z,18.37
2019-03-24T09:44:04.667Z,18.37
2019-03-24T09:45:04.709Z,18.36
2019-03-24T09:46:04.697Z,18.35
2019-03-24T09:47:04.700Z,18.35
2019-03-24T09:48:04.746Z,18.35
2019-03-24T09:49:04.847Z,18.34
2019-03-24T09:50:05.074Z,18.34
2019-03-24T09:51:04.816Z,18.33
2019-03-24T09:52:04.820Z,18.35
2019-03-24T09:53:04.859Z,18.39
2019-03-24T09:54:05.036Z,18.43
2019-03-24T09:55:04.922Z,18.46
2019-03-24T09:56:04.944Z,18.47
2019-03-24T09:57:04.933Z,18.54
2019-03-24T09:58:05.057Z,18.56
2019-03-24T09:59:04.997Z,18.59
2019-03-24T10:00:05.038Z,18.61
2019-03-24T10:01:04.724Z,18.63
2019-03-24T10:02:04.750Z,18.66
2019-03-24T10:03:04.773Z,18.69
2019-03-24T10:04:04.820Z,18.72
2019-03-24T10:05:04.780Z,18.73
2019-03-24T10:06:04.790Z,18.75
2019-03-24T10:07:04.858Z,18.78
2019-03-24T10:08:04.829Z,18.78
2019-03-24T10:09:04.973Z,18.78
2019-03-24T10:10:04.849Z,18.78
2019-03-24T10:11:05.723Z,18.81
2019-03-24T10:12:04.875Z,18.82
2019-03-24T10:13:04.996Z,18.84
2019-03-24T10:14:04.993Z,18.87
2019-03-24T10:15:04.909Z,18.87
2019-03-24T10:16:04.898Z,18.9
2019-03-24T10:17:05.034Z,18.91
2019-03-24T10:18:04.657Z,18.94
2019-03-24T10:19:14.714Z,18.94
2019-03-24T10:20:04.705Z,18.97
2019-03-24T10:21:04.862Z,19
2019-03-24T10:22:04.808Z,18.99
2019-03-24T10:23:04.729Z,19
2019-03-24T10:24:04.786Z,19
2019-03-24T10:25:04.751Z,19
2019-03-24T10:26:04.871Z,19
2019-03-24T10:27:04.798Z,19.01
2019-03-24T10:28:04.837Z,19
2019-03-24T10:29:04.840Z,19.01
2019-03-24T10:30:04.858Z,19.01
2019-03-24T10:31:04.842Z,19.03
2019-03-24T10:32:04.869Z,19.03
2019-03-24T10:33:05.055Z,19.04
2019-03-24T10:34:04.994Z,19.05
2019-03-24T10:35:04.721Z,19.04
2019-03-24T10:36:04.810Z,19.04
2019-03-24T10:37:04.738Z,19.05
2019-03-24T10:38:04.797Z,19.08
2019-03-24T10:39:04.806Z,19.04
2019-03-24T10:40:04.829Z,18.92
2019-03-24T10:41:04.907Z,18.9
2019-03-24T10:42:04.899Z,18.92
2019-03-24T10:43:04.799Z,18.93
2019-03-24T10:44:04.833Z,18.96
2019-03-24T10:45:04.962Z,18.97
2019-03-24T10:46:04.983Z,18.98
2019-03-24T10:47:04.924Z,18.97
2019-03-24T10:48:04.893Z,18.98
2019-03-24T10:49:04.893Z,19
2019-03-24T10:50:05.292Z,19.01
2019-03-24T10:51:04.940Z,19.01
2019-03-24T10:52:04.818Z,19.02
2019-03-24T10:53:06.229Z,19.03
2019-03-24T10:54:05.030Z,19.04
2019-03-24T10:55:04.796Z,19.04
2019-03-24T10:56:04.709Z,19.07
2019-03-24T10:57:05.659Z,19.07
2019-03-24T10:58:04.742Z,19.08
2019-03-24T10:59:04.728Z,19.09
2019-03-24T11:00:04.936Z,19.09
2019-03-24T11:01:04.782Z,19.11
2019-03-24T11:02:04.795Z,19.11
2019-03-24T11:03:04.849Z,19.13
2019-03-24T11:04:04.831Z,19.14
2019-03-24T11:05:05.226Z,19.15
2019-03-24T11:06:04.992Z,19.17
2019-03-24T11:07:04.839Z,19.17
2019-03-24T11:08:05.020Z,19.17
2019-03-24T11:09:04.911Z,19.16
2019-03-24T11:10:05.835Z,19.16
2019-03-24T11:11:04.693Z,19.16
2019-03-24T11:12:04.743Z,19.16
2019-03-24T11:13:04.812Z,19.17
2019-03-24T11:14:04.779Z,19.18
2019-03-24T11:15:05.168Z,19.18
2019-03-24T11:16:04.756Z,19.19
2019-03-24T11:17:04.857Z,19.2
2019-03-24T11:18:04.866Z,19.19
2019-03-24T11:19:04.823Z,19.21
2019-03-24T11:20:04.818Z,19.21
2019-03-24T11:21:04.810Z,19.2
2019-03-24T11:22:04.906Z,19.2
2019-03-24T11:23:04.938Z,19.2
2019-03-24T11:24:04.853Z,19.18
2019-03-24T11:25:04.896Z,19.17
2019-03-24T11:26:04.975Z,19.17
2019-03-24T11:27:04.924Z,19.17
2019-03-24T11:28:04.947Z,19.16
2019-03-24T11:29:04.782Z,19.16
2019-03-24T11:30:04.720Z,19.15
2019-03-24T11:31:04.698Z,19.15
2019-03-24T11:32:04.694Z,19.15
2019-03-24T11:33:04.686Z,19.15
2019-03-24T11:34:04.766Z,19.14
2019-03-24T11:35:04.842Z,19.13
2019-03-24T11:36:04.724Z,19.14
2019-03-24T11:37:04.951Z,19.13
2019-03-24T11:38:04.727Z,19.13
2019-03-24T11:39:04.789Z,19.14
2019-03-24T11:40:05.057Z,19.13
2019-03-24T11:41:04.834Z,19.15
2019-03-24T11:42:04.869Z,19.16
2019-03-24T11:43:04.834Z,19.18
2019-03-24T11:44:04.834Z,19.2
2019-03-24T11:45:05.020Z,19.19
2019-03-24T11:46:04.876Z,19.2
2019-03-24T11:47:04.962Z,19.2
2019-03-24T11:48:04.691Z,19.21
2019-03-24T11:49:04.696Z,19.21
2019-03-24T11:50:04.793Z,19.2
2019-03-24T11:51:04.705Z,19.2
2019-03-24T11:52:04.724Z,19.2
2019-03-24T11:53:04.841Z,19.21
2019-03-24T11:54:04.762Z,19.21
2019-03-24T11:55:04.774Z,19.21
2019-03-24T11:56:04.844Z,19.21
2019-03-24T11:57:04.791Z,19.21
2019-03-24T11:58:06.676Z,19.21
2019-03-24T11:59:04.793Z,19.21
2019-03-24T12:00:04.855Z,19.2
2019-03-24T12:01:04.937Z,19.18
2019-03-24T12:02:04.955Z,19.18
2019-03-24T12:03:04.875Z,19.17
2019-03-24T12:04:04.988Z,19.16
2019-03-24T12:05:04.879Z,19.16
2019-03-24T12:06:15.282Z,19.15
2019-03-24T12:07:04.669Z,19.15
2019-03-24T12:08:04.832Z,19.15
2019-03-24T12:09:04.682Z,19.15
2019-03-24T12:10:04.712Z,19.15
2019-03-24T12:11:04.816Z,19.15
2019-03-24T12:12:04.727Z,19.15
2019-03-24T12:13:04.714Z,19.15
2019-03-24T12:14:04.900Z,19.15
2019-03-24T12:15:05.791Z,19.14
2019-03-24T12:16:04.746Z,19.13
2019-03-24T12:17:04.758Z,19.14
2019-03-24T12:18:04.814Z,19.14
2019-03-24T12:19:04.829Z,19.14
2019-03-24T12:20:05.826Z,19.14
2019-03-24T12:21:05.106Z,19.13
2019-03-24T12:22:04.853Z,19.13
2019-03-24T12:23:04.912Z,19.13
2019-03-24T12:24:04.712Z,19.14
2019-03-24T12:25:04.669Z,19.13
2019-03-24T12:26:04.752Z,19.13
2019-03-24T12:27:04.782Z,19.12
2019-03-24T12:28:04.788Z,19.12
2019-03-24T12:29:04.781Z,19.13
2019-03-24T12:30:04.702Z,19.12
2019-03-24T12:31:04.726Z,19.12
2019-03-24T12:32:04.794Z,19.12
2019-03-24T12:33:04.823Z,19.12
2019-03-24T12:34:04.778Z,19.13
2019-03-24T12:35:04.854Z,19.13
2019-03-24T12:36:04.809Z,19.13
2019-03-24T12:37:04.827Z,19.12
2019-03-24T12:38:05.166Z,19.12
2019-03-24T12:39:04.858Z,19.13
2019-03-24T12:40:04.877Z,19.13
2019-03-24T12:41:04.850Z,19.13
2019-03-24T12:42:04.904Z,19.13
2019-03-24T12:43:04.670Z,19.13
2019-03-24T12:44:04.677Z,19.13
2019-03-24T12:45:04.644Z,19.11
2019-03-24T12:46:04.818Z,19.14
2019-03-24T12:47:04.808Z,19.15
2019-03-24T12:48:04.755Z,19.17
2019-03-24T12:49:04.743Z,19.17
2019-03-24T12:50:10.657Z,19.19
2019-03-24T12:51:04.764Z,19.21
2019-03-24T12:52:04.750Z,19.21
2019-03-24T12:53:04.862Z,19.22
2019-03-24T12:54:04.891Z,19.23
2019-03-24T12:55:04.890Z,19.24